sensor_id;sensor_type;location;lat;lon;timestamp;pressure;altitude;pressure_sealevel;temperature;humidity
47809;BME280;33573;38.790;-77.084;2023-05-23T00:02:00;101874.95;;;25.29;29.71
47809;BME280;33573;38.790;-77.084;2023-05-23T00:04:26;101874.48;;;25.63;29.67
47809;BME280;33573;38.790;-77.084;2023-05-23T00:06:51;101877.55;;;25.65;29.72
47809;BME280;33573;38.790;-77.084;2023-05-23T00:09:16;101877.53;;;24.94;30.37
47809;BME280;33573;38.790;-77.084;2023-05-23T00:11:42;101879.10;;;24.66;30.74
47809;BME280;33573;38.790;-77.084;2023-05-23T00:14:06;101876.11;;;25.21;30.18
47809;BME280;33573;38.790;-77.084;2023-05-23T00:16:32;101879.36;;;24.87;30.47
47809;BME280;33573;38.790;-77.084;2023-05-23T00:18:57;101877.86;;;25.05;30.37
47809;BME280;33573;38.790;-77.084;2023-05-23T00:21:22;101881.63;;;25.25;30.40
47809;BME280;33573;38.790;-77.084;2023-05-23T00:23:47;101885.97;;;24.71;30.77
47809;BME280;33573;38.790;-77.084;2023-05-23T00:26:13;101886.25;;;24.90;30.66
47809;BME280;33573;38.790;-77.084;2023-05-23T00:28:39;101890.60;;;25.04;30.89
47809;BME280;33573;38.790;-77.084;2023-05-23T00:31:04;101891.67;;;24.63;31.30
47809;BME280;33573;38.790;-77.084;2023-05-23T00:33:29;101893.56;;;24.55;31.85
47809;BME280;33573;38.790;-77.084;2023-05-23T00:35:55;101896.63;;;24.60;32.11
47809;BME280;33573;38.790;-77.084;2023-05-23T00:38:20;101894.60;;;24.45;32.09
47809;BME280;33573;38.790;-77.084;2023-05-23T00:40:46;101900.37;;;24.77;32.35
47809;BME280;33573;38.790;-77.084;2023-05-23T00:43:12;101904.24;;;23.36;33.64
47809;BME280;33573;38.790;-77.084;2023-05-23T00:45:37;101907.25;;;23.30;34.31
47809;BME280;33573;38.790;-77.084;2023-05-23T00:48:03;101907.44;;;23.07;34.87
47809;BME280;33573;38.790;-77.084;2023-05-23T00:50:28;101909.78;;;23.16;34.63
47809;BME280;33573;38.790;-77.084;2023-05-23T00:52:53;101909.58;;;23.34;34.92
47809;BME280;33573;38.790;-77.084;2023-05-23T00:55:18;101909.90;;;23.05;34.84
47809;BME280;33573;38.790;-77.084;2023-05-23T00:57:44;101912.00;;;22.82;35.51
47809;BME280;33573;38.790;-77.084;2023-05-23T01:00:11;101914.80;;;23.10;35.79
47809;BME280;33573;38.790;-77.084;2023-05-23T01:02:36;101917.86;;;22.82;36.06
47809;BME280;33573;38.790;-77.084;2023-05-23T01:05:00;101918.70;;;22.90;36.46
47809;BME280;33573;38.790;-77.084;2023-05-23T01:07:26;101922.33;;;22.66;36.62
47809;BME280;33573;38.790;-77.084;2023-05-23T01:09:51;101925.05;;;22.81;37.19
47809;BME280;33573;38.790;-77.084;2023-05-23T01:12:22;101930.06;;;22.34;37.35
47809;BME280;33573;38.790;-77.084;2023-05-23T01:14:46;101936.01;;;22.56;37.03
47809;BME280;33573;38.790;-77.084;2023-05-23T01:17:12;101937.06;;;22.34;37.34
47809;BME280;33573;38.790;-77.084;2023-05-23T01:19:47;101941.99;;;22.13;37.55
47809;BME280;33573;38.790;-77.084;2023-05-23T01:22:03;101943.08;;;22.27;37.91
47809;BME280;33573;38.790;-77.084;2023-05-23T01:24:35;101947.11;;;22.27;37.95
47809;BME280;33573;38.790;-77.084;2023-05-23T01:27:00;101949.83;;;22.25;38.23
47809;BME280;33573;38.790;-77.084;2023-05-23T01:29:21;101952.28;;;21.92;38.31
47809;BME280;33573;38.790;-77.084;2023-05-23T01:31:43;101957.24;;;21.95;38.12
47809;BME280;33573;38.790;-77.084;2023-05-23T01:34:06;101962.31;;;22.01;38.32
47809;BME280;33573;38.790;-77.084;2023-05-23T01:36:33;101965.54;;;21.94;38.32
47809;BME280;33573;38.790;-77.084;2023-05-23T01:38:55;101968.10;;;22.14;38.17
47809;BME280;33573;38.790;-77.084;2023-05-23T01:41:21;101971.54;;;22.03;38.25
47809;BME280;33573;38.790;-77.084;2023-05-23T01:43:47;101976.10;;;21.64;38.49
47809;BME280;33573;38.790;-77.084;2023-05-23T01:46:13;101983.56;;;21.72;38.53
47809;BME280;33573;38.790;-77.084;2023-05-23T01:48:38;101987.59;;;21.75;38.69
47809;BME280;33573;38.790;-77.084;2023-05-23T01:51:04;101991.89;;;21.79;38.82
47809;BME280;33573;38.790;-77.084;2023-05-23T01:53:30;101997.66;;;21.80;38.91
47809;BME280;33573;38.790;-77.084;2023-05-23T01:55:55;102001.06;;;22.12;38.09
47809;BME280;33573;38.790;-77.084;2023-05-23T01:58:20;102001.41;;;21.58;38.05
47809;BME280;33573;38.790;-77.084;2023-05-23T02:00:46;102004.76;;;21.53;38.70
47809;BME280;33573;38.790;-77.084;2023-05-23T02:03:11;102009.32;;;21.60;39.08
47809;BME280;33573;38.790;-77.084;2023-05-23T02:05:36;102010.14;;;21.79;39.14
47809;BME280;33573;38.790;-77.084;2023-05-23T02:08:02;102010.48;;;21.53;39.03
47809;BME280;33573;38.790;-77.084;2023-05-23T02:10:27;102016.12;;;21.43;38.85
47809;BME280;33573;38.790;-77.084;2023-05-23T02:12:53;102015.12;;;21.65;38.45
47809;BME280;33573;38.790;-77.084;2023-05-23T02:15:18;102018.38;;;21.99;38.45
47809;BME280;33573;38.790;-77.084;2023-05-23T02:17:44;102021.33;;;21.70;38.29
47809;BME280;33573;38.790;-77.084;2023-05-23T02:20:10;102023.83;;;21.93;37.22
47809;BME280;33573;38.790;-77.084;2023-05-23T02:22:35;102024.01;;;22.37;36.79
47809;BME280;33573;38.790;-77.084;2023-05-23T02:25:00;102027.33;;;22.58;36.49
47809;BME280;33573;38.790;-77.084;2023-05-23T02:27:26;102029.01;;;22.52;35.84
47809;BME280;33573;38.790;-77.084;2023-05-23T02:29:51;102028.95;;;22.49;36.02
47809;BME280;33573;38.790;-77.084;2023-05-23T02:32:16;102030.98;;;22.74;36.33
47809;BME280;33573;38.790;-77.084;2023-05-23T02:34:46;102028.48;;;22.38;36.28
47809;BME280;33573;38.790;-77.084;2023-05-23T02:37:07;102030.31;;;22.73;35.69
47809;BME280;33573;38.790;-77.084;2023-05-23T02:39:35;102029.96;;;22.33;36.42
47809;BME280;33573;38.790;-77.084;2023-05-23T02:41:58;102034.96;;;22.32;36.80
47809;BME280;33573;38.790;-77.084;2023-05-23T02:44:23;102032.82;;;22.24;36.49
47809;BME280;33573;38.790;-77.084;2023-05-23T02:46:48;102032.36;;;22.40;36.72
47809;BME280;33573;38.790;-77.084;2023-05-23T02:49:14;102035.46;;;22.22;36.53
47809;BME280;33573;38.790;-77.084;2023-05-23T02:51:39;102037.27;;;22.45;36.63
47809;BME280;33573;38.790;-77.084;2023-05-23T02:54:05;102035.49;;;22.57;36.64
47809;BME280;33573;38.790;-77.084;2023-05-23T02:56:31;102034.58;;;22.75;36.09
47809;BME280;33573;38.790;-77.084;2023-05-23T02:58:57;102031.34;;;22.42;36.38
47809;BME280;33573;38.790;-77.084;2023-05-23T03:01:22;102029.62;;;22.16;37.04
47809;BME280;33573;38.790;-77.084;2023-05-23T03:03:48;102033.14;;;22.34;37.11
47809;BME280;33573;38.790;-77.084;2023-05-23T03:06:13;102033.42;;;22.12;37.32
47809;BME280;33573;38.790;-77.084;2023-05-23T03:08:39;102036.29;;;22.63;37.24
47809;BME280;33573;38.790;-77.084;2023-05-23T03:11:10;102034.80;;;21.70;37.79
47809;BME280;33573;38.790;-77.084;2023-05-23T03:13:31;102033.47;;;21.88;37.81
47809;BME280;33573;38.790;-77.084;2023-05-23T03:15:56;102037.20;;;21.75;37.70
47809;BME280;33573;38.790;-77.084;2023-05-23T03:18:22;102043.31;;;21.96;37.86
47809;BME280;33573;38.790;-77.084;2023-05-23T03:20:47;102045.40;;;22.26;37.52
47809;BME280;33573;38.790;-77.084;2023-05-23T03:23:12;102046.76;;;21.96;38.02
47809;BME280;33573;38.790;-77.084;2023-05-23T03:25:37;102049.85;;;21.93;38.51
47809;BME280;33573;38.790;-77.084;2023-05-23T03:28:03;102047.36;;;21.78;38.57
47809;BME280;33573;38.790;-77.084;2023-05-23T03:30:28;102047.42;;;21.41;38.78
47809;BME280;33573;38.790;-77.084;2023-05-23T03:32:53;102046.52;;;21.40;38.67
47809;BME280;33573;38.790;-77.084;2023-05-23T03:35:24;102046.85;;;21.65;38.69
47809;BME280;33573;38.790;-77.084;2023-05-23T03:37:44;102048.09;;;21.49;38.90
47809;BME280;33573;38.790;-77.084;2023-05-23T03:40:10;102047.66;;;21.37;39.47
47809;BME280;33573;38.790;-77.084;2023-05-23T03:42:37;102052.60;;;21.42;39.27
47809;BME280;33573;38.790;-77.084;2023-05-23T03:45:01;102059.34;;;21.26;39.61
47809;BME280;33573;38.790;-77.084;2023-05-23T03:47:26;102061.73;;;21.28;39.45
47809;BME280;33573;38.790;-77.084;2023-05-23T03:49:51;102063.77;;;21.13;39.71
47809;BME280;33573;38.790;-77.084;2023-05-23T03:52:17;102061.76;;;21.21;39.84
47809;BME280;33573;38.790;-77.084;2023-05-23T03:54:42;102061.53;;;20.98;39.97
47809;BME280;33573;38.790;-77.084;2023-05-23T03:57:07;102066.97;;;20.85;40.45
47809;BME280;33573;38.790;-77.084;2023-05-23T03:59:33;102068.98;;;20.77;40.57
47809;BME280;33573;38.790;-77.084;2023-05-23T04:01:58;102071.80;;;20.80;40.28
47809;BME280;33573;38.790;-77.084;2023-05-23T04:04:23;102073.36;;;20.87;40.21
47809;BME280;33573;38.790;-77.084;2023-05-23T04:06:49;102074.00;;;20.77;40.29
47809;BME280;33573;38.790;-77.084;2023-05-23T04:09:14;102074.32;;;20.77;40.38
47809;BME280;33573;38.790;-77.084;2023-05-23T04:11:40;102080.39;;;20.77;40.77
47809;BME280;33573;38.790;-77.084;2023-05-23T04:14:05;102082.26;;;20.52;41.24
47809;BME280;33573;38.790;-77.084;2023-05-23T04:16:31;102082.02;;;20.70;41.44
47809;BME280;33573;38.790;-77.084;2023-05-23T04:18:57;102081.19;;;20.35;42.44
47809;BME280;33573;38.790;-77.084;2023-05-23T04:21:22;102082.42;;;20.59;42.08
47809;BME280;33573;38.790;-77.084;2023-05-23T04:23:48;102087.94;;;20.58;41.95
47809;BME280;33573;38.790;-77.084;2023-05-23T04:26:13;102091.71;;;20.41;42.10
47809;BME280;33573;38.790;-77.084;2023-05-23T04:28:38;102092.59;;;20.42;41.84
47809;BME280;33573;38.790;-77.084;2023-05-23T04:31:04;102091.75;;;20.42;42.13
47809;BME280;33573;38.790;-77.084;2023-05-23T04:33:30;102092.26;;;20.31;42.46
47809;BME280;33573;38.790;-77.084;2023-05-23T04:35:55;102089.26;;;20.05;42.61
47809;BME280;33573;38.790;-77.084;2023-05-23T04:38:21;102089.25;;;19.95;43.25
47809;BME280;33573;38.790;-77.084;2023-05-23T04:40:46;102091.05;;;20.10;43.20
47809;BME280;33573;38.790;-77.084;2023-05-23T04:43:12;102091.33;;;19.82;43.90
47809;BME280;33573;38.790;-77.084;2023-05-23T04:45:37;102090.38;;;19.61;43.73
47809;BME280;33573;38.790;-77.084;2023-05-23T04:48:03;102094.27;;;19.95;43.38
47809;BME280;33573;38.790;-77.084;2023-05-23T04:50:28;102094.59;;;19.49;43.82
47809;BME280;33573;38.790;-77.084;2023-05-23T04:52:53;102095.78;;;19.23;44.41
47809;BME280;33573;38.790;-77.084;2023-05-23T04:55:18;102096.93;;;19.68;44.70
47809;BME280;33573;38.790;-77.084;2023-05-23T04:57:44;102100.76;;;19.61;44.53
47809;BME280;33573;38.790;-77.084;2023-05-23T05:00:10;102102.94;;;19.58;44.54
47809;BME280;33573;38.790;-77.084;2023-05-23T05:02:35;102105.60;;;19.41;44.60
47809;BME280;33573;38.790;-77.084;2023-05-23T05:05:00;102105.29;;;19.35;44.76
47809;BME280;33573;38.790;-77.084;2023-05-23T05:07:26;102108.91;;;19.37;44.74
47809;BME280;33573;38.790;-77.084;2023-05-23T05:09:51;102106.84;;;19.41;45.28
47809;BME280;33573;38.790;-77.084;2023-05-23T05:12:16;102105.58;;;19.23;45.43
47809;BME280;33573;38.790;-77.084;2023-05-23T05:14:41;102108.18;;;19.01;45.70
47809;BME280;33573;38.790;-77.084;2023-05-23T05:17:06;102108.35;;;19.03;45.73
47809;BME280;33573;38.790;-77.084;2023-05-23T05:19:32;102106.44;;;19.18;45.75
47809;BME280;33573;38.790;-77.084;2023-05-23T05:21:57;102105.33;;;19.24;45.89
47809;BME280;33573;38.790;-77.084;2023-05-23T05:24:22;102111.61;;;18.98;45.82
47809;BME280;33573;38.790;-77.084;2023-05-23T05:26:48;102109.46;;;18.98;45.83
47809;BME280;33573;38.790;-77.084;2023-05-23T05:29:13;102108.81;;;19.00;45.81
47809;BME280;33573;38.790;-77.084;2023-05-23T05:31:39;102111.12;;;18.77;46.17
47809;BME280;33573;38.790;-77.084;2023-05-23T05:34:04;102110.16;;;18.97;45.89
47809;BME280;33573;38.790;-77.084;2023-05-23T05:36:30;102112.10;;;18.89;45.70
47809;BME280;33573;38.790;-77.084;2023-05-23T05:38:55;102114.14;;;18.72;45.94
47809;BME280;33573;38.790;-77.084;2023-05-23T05:41:21;102114.56;;;18.89;45.74
47809;BME280;33573;38.790;-77.084;2023-05-23T05:43:46;102111.71;;;18.72;46.12
47809;BME280;33573;38.790;-77.084;2023-05-23T05:46:11;102115.58;;;18.51;46.41
47809;BME280;33573;38.790;-77.084;2023-05-23T05:48:37;102117.47;;;18.90;45.96
47809;BME280;33573;38.790;-77.084;2023-05-23T05:51:02;102119.63;;;18.85;46.45
47809;BME280;33573;38.790;-77.084;2023-05-23T05:53:27;102117.73;;;18.63;46.47
47809;BME280;33573;38.790;-77.084;2023-05-23T05:55:54;102120.51;;;18.45;46.84
47809;BME280;33573;38.790;-77.084;2023-05-23T05:58:18;102117.29;;;18.52;46.60
47809;BME280;33573;38.790;-77.084;2023-05-23T06:00:44;102119.92;;;18.32;46.98
47809;BME280;33573;38.790;-77.084;2023-05-23T06:03:09;102120.54;;;18.64;46.74
47809;BME280;33573;38.790;-77.084;2023-05-23T06:05:36;102124.33;;;18.26;47.59
47809;BME280;33573;38.790;-77.084;2023-05-23T06:08:01;102124.47;;;18.38;47.10
47809;BME280;33573;38.790;-77.084;2023-05-23T06:10:26;102119.86;;;18.62;47.07
47809;BME280;33573;38.790;-77.084;2023-05-23T06:12:52;102116.95;;;18.34;47.21
47809;BME280;33573;38.790;-77.084;2023-05-23T06:15:17;102119.87;;;18.37;47.69
47809;BME280;33573;38.790;-77.084;2023-05-23T06:17:43;102126.38;;;18.53;47.36
47809;BME280;33573;38.790;-77.084;2023-05-23T06:20:09;102127.49;;;18.43;47.68
47809;BME280;33573;38.790;-77.084;2023-05-23T06:22:33;102125.92;;;18.31;47.69
47809;BME280;33573;38.790;-77.084;2023-05-23T06:24:58;102126.61;;;18.39;47.66
47809;BME280;33573;38.790;-77.084;2023-05-23T06:27:23;102129.19;;;17.78;47.75
47809;BME280;33573;38.790;-77.084;2023-05-23T06:29:49;102132.53;;;18.01;47.77
47809;BME280;33573;38.790;-77.084;2023-05-23T06:32:15;102132.11;;;18.03;48.17
47809;BME280;33573;38.790;-77.084;2023-05-23T06:34:40;102130.40;;;17.94;48.35
47809;BME280;33573;38.790;-77.084;2023-05-23T06:37:05;102127.51;;;18.15;47.94
47809;BME280;33573;38.790;-77.084;2023-05-23T06:39:30;102127.94;;;18.25;47.83
47809;BME280;33573;38.790;-77.084;2023-05-23T06:41:56;102125.50;;;17.93;48.37
47809;BME280;33573;38.790;-77.084;2023-05-23T06:44:22;102126.03;;;18.25;47.97
47809;BME280;33573;38.790;-77.084;2023-05-23T06:46:47;102127.21;;;17.92;48.30
47809;BME280;33573;38.790;-77.084;2023-05-23T06:49:13;102129.24;;;17.91;48.24
47809;BME280;33573;38.790;-77.084;2023-05-23T06:51:38;102134.58;;;18.04;48.75
47809;BME280;33573;38.790;-77.084;2023-05-23T06:54:05;102133.13;;;18.02;48.23
47809;BME280;33573;38.790;-77.084;2023-05-23T06:56:29;102133.88;;;17.84;48.42
47809;BME280;33573;38.790;-77.084;2023-05-23T06:58:54;102131.55;;;17.83;48.55
47809;BME280;33573;38.790;-77.084;2023-05-23T07:01:20;102132.08;;;17.72;48.72
47809;BME280;33573;38.790;-77.084;2023-05-23T07:03:45;102130.68;;;17.85;48.61
47809;BME280;33573;38.790;-77.084;2023-05-23T07:06:10;102128.39;;;17.85;48.62
47809;BME280;33573;38.790;-77.084;2023-05-23T07:08:36;102126.85;;;17.79;48.78
47809;BME280;33573;38.790;-77.084;2023-05-23T07:11:02;102124.85;;;17.72;49.01
47809;BME280;33573;38.790;-77.084;2023-05-23T07:13:27;102127.02;;;17.90;48.81
47809;BME280;33573;38.790;-77.084;2023-05-23T07:15:52;102126.40;;;17.92;48.89
47809;BME280;33573;38.790;-77.084;2023-05-23T07:18:19;102127.66;;;17.90;48.99
47809;BME280;33573;38.790;-77.084;2023-05-23T07:20:43;102130.35;;;17.75;49.11
47809;BME280;33573;38.790;-77.084;2023-05-23T07:23:09;102128.33;;;17.45;48.68
47809;BME280;33573;38.790;-77.084;2023-05-23T07:25:34;102130.61;;;17.70;49.00
47809;BME280;33573;38.790;-77.084;2023-05-23T07:28:00;102130.75;;;17.76;48.91
47809;BME280;33573;38.790;-77.084;2023-05-23T07:30:25;102129.46;;;17.46;49.05
47809;BME280;33573;38.790;-77.084;2023-05-23T07:32:51;102127.51;;;17.53;48.68
47809;BME280;33573;38.790;-77.084;2023-05-23T07:35:16;102131.73;;;17.38;49.28
47809;BME280;33573;38.790;-77.084;2023-05-23T07:37:42;102131.89;;;17.41;49.55
47809;BME280;33573;38.790;-77.084;2023-05-23T07:40:07;102133.84;;;17.22;49.84
47809;BME280;33573;38.790;-77.084;2023-05-23T07:42:31;102131.40;;;17.26;49.41
47809;BME280;33573;38.790;-77.084;2023-05-23T07:44:57;102131.19;;;17.37;49.07
47809;BME280;33573;38.790;-77.084;2023-05-23T07:47:23;102136.36;;;17.21;49.41
47809;BME280;33573;38.790;-77.084;2023-05-23T07:49:48;102139.25;;;17.39;49.69
47809;BME280;33573;38.790;-77.084;2023-05-23T07:52:14;102137.08;;;17.45;49.79
47809;BME280;33573;38.790;-77.084;2023-05-23T07:54:39;102138.97;;;17.56;49.35
47809;BME280;33573;38.790;-77.084;2023-05-23T07:57:06;102140.77;;;17.45;49.48
47809;BME280;33573;38.790;-77.084;2023-05-23T07:59:31;102140.05;;;17.53;49.35
47809;BME280;33573;38.790;-77.084;2023-05-23T08:01:56;102139.71;;;17.41;49.19
47809;BME280;33573;38.790;-77.084;2023-05-23T08:04:22;102141.47;;;17.22;49.51
47809;BME280;33573;38.790;-77.084;2023-05-23T08:06:47;102137.81;;;17.28;49.76
47809;BME280;33573;38.790;-77.084;2023-05-23T08:09:12;102141.98;;;17.36;49.71
47809;BME280;33573;38.790;-77.084;2023-05-23T08:11:38;102144.95;;;17.22;50.19
47809;BME280;33573;38.790;-77.084;2023-05-23T08:14:03;102146.61;;;17.46;49.41
47809;BME280;33573;38.790;-77.084;2023-05-23T08:16:28;102147.65;;;17.42;50.08
47809;BME280;33573;38.790;-77.084;2023-05-23T08:18:54;102148.02;;;17.07;50.24
47809;BME280;33573;38.790;-77.084;2023-05-23T08:21:21;102145.48;;;17.36;50.24
47809;BME280;33573;38.790;-77.084;2023-05-23T08:23:45;102148.93;;;17.17;50.44
47809;BME280;33573;38.790;-77.084;2023-05-23T08:26:11;102150.23;;;16.75;51.01
47809;BME280;33573;38.790;-77.084;2023-05-23T08:28:36;102146.68;;;16.47;50.90
47809;BME280;33573;38.790;-77.084;2023-05-23T08:31:03;102151.04;;;17.26;50.31
47809;BME280;33573;38.790;-77.084;2023-05-23T08:33:28;102153.61;;;17.16;50.42
47809;BME280;33573;38.790;-77.084;2023-05-23T08:35:53;102152.19;;;17.22;49.88
47809;BME280;33573;38.790;-77.084;2023-05-23T08:38:19;102156.25;;;17.38;50.00
47809;BME280;33573;38.790;-77.084;2023-05-23T08:40:48;102154.25;;;17.04;50.17
47809;BME280;33573;38.790;-77.084;2023-05-23T08:43:10;102155.06;;;17.07;50.30
47809;BME280;33573;38.790;-77.084;2023-05-23T08:45:35;102158.73;;;17.28;50.24
47809;BME280;33573;38.790;-77.084;2023-05-23T08:48:00;102161.30;;;17.27;50.21
47809;BME280;33573;38.790;-77.084;2023-05-23T08:50:28;102159.40;;;17.31;50.00
47809;BME280;33573;38.790;-77.084;2023-05-23T08:52:55;102155.85;;;16.78;50.39
47809;BME280;33573;38.790;-77.084;2023-05-23T08:55:17;102157.35;;;16.77;50.51
47809;BME280;33573;38.790;-77.084;2023-05-23T08:57:43;102162.38;;;17.16;50.32
47809;BME280;33573;38.790;-77.084;2023-05-23T09:00:11;102164.01;;;17.13;50.34
47809;BME280;33573;38.790;-77.084;2023-05-23T09:02:34;102167.15;;;17.10;50.29
47809;BME280;33573;38.790;-77.084;2023-05-23T09:05:00;102170.11;;;16.91;50.24
47809;BME280;33573;38.790;-77.084;2023-05-23T09:07:27;102174.04;;;16.73;50.34
47809;BME280;33573;38.790;-77.084;2023-05-23T09:09:51;102173.06;;;16.86;50.89
47809;BME280;33573;38.790;-77.084;2023-05-23T09:12:16;102176.27;;;16.53;51.53
47809;BME280;33573;38.790;-77.084;2023-05-23T09:14:47;102176.23;;;16.80;50.76
47809;BME280;33573;38.790;-77.084;2023-05-23T09:17:07;102176.36;;;17.02;50.39
47809;BME280;33573;38.790;-77.084;2023-05-23T09:19:32;102175.82;;;16.92;50.66
47809;BME280;33573;38.790;-77.084;2023-05-23T09:21:59;102174.58;;;16.67;51.14
47809;BME280;33573;38.790;-77.084;2023-05-23T09:24:23;102175.23;;;16.72;51.10
47809;BME280;33573;38.790;-77.084;2023-05-23T09:26:48;102182.36;;;16.60;51.28
47809;BME280;33573;38.790;-77.084;2023-05-23T09:29:13;102182.82;;;16.97;51.00
47809;BME280;33573;38.790;-77.084;2023-05-23T09:31:38;102181.89;;;16.38;51.24
47809;BME280;33573;38.790;-77.084;2023-05-23T09:34:04;102183.17;;;16.92;51.16
47809;BME280;33573;38.790;-77.084;2023-05-23T09:36:29;102186.45;;;16.59;51.29
47809;BME280;33573;38.790;-77.084;2023-05-23T09:38:54;102188.30;;;16.77;50.72
47809;BME280;33573;38.790;-77.084;2023-05-23T09:41:20;102190.41;;;16.91;50.86
47809;BME280;33573;38.790;-77.084;2023-05-23T09:43:50;102192.35;;;16.35;51.50
47809;BME280;33573;38.790;-77.084;2023-05-23T09:46:11;102189.07;;;16.46;51.24
47809;BME280;33573;38.790;-77.084;2023-05-23T09:48:37;102193.26;;;16.43;51.22
47809;BME280;33573;38.790;-77.084;2023-05-23T09:51:05;102196.12;;;16.41;51.23
47809;BME280;33573;38.790;-77.084;2023-05-23T09:53:28;102196.01;;;16.15;51.68
47809;BME280;33573;38.790;-77.084;2023-05-23T09:55:53;102198.59;;;16.08;51.75
47809;BME280;33573;38.790;-77.084;2023-05-23T09:58:27;102204.99;;;16.31;51.24
47809;BME280;33573;38.790;-77.084;2023-05-23T10:00:45;102210.75;;;16.37;51.11
47809;BME280;33573;38.790;-77.084;2023-05-23T10:03:11;102210.80;;;16.66;50.99
47809;BME280;33573;38.790;-77.084;2023-05-23T10:05:37;102209.40;;;16.28;51.31
47809;BME280;33573;38.790;-77.084;2023-05-23T10:08:01;102211.62;;;16.40;51.22
47809;BME280;33573;38.790;-77.084;2023-05-23T10:10:28;102213.14;;;16.26;51.48
47809;BME280;33573;38.790;-77.084;2023-05-23T10:12:53;102220.70;;;16.49;50.85
47809;BME280;33573;38.790;-77.084;2023-05-23T10:15:17;102221.58;;;16.25;51.40
47809;BME280;33573;38.790;-77.084;2023-05-23T10:20:10;102228.10;;;15.98;51.96
47809;BME280;33573;38.790;-77.084;2023-05-23T10:22:33;102226.03;;;16.17;51.57
47809;BME280;33573;38.790;-77.084;2023-05-23T10:24:58;102230.35;;;16.43;51.64
47809;BME280;33573;38.790;-77.084;2023-05-23T10:27:23;102232.50;;;16.46;51.00
47809;BME280;33573;38.790;-77.084;2023-05-23T10:29:49;102234.01;;;16.14;51.66
47809;BME280;33573;38.790;-77.084;2023-05-23T10:32:15;102237.51;;;16.30;51.37
47809;BME280;33573;38.790;-77.084;2023-05-23T10:34:45;102242.13;;;16.48;51.08
47809;BME280;33573;38.790;-77.084;2023-05-23T10:37:09;102245.93;;;16.73;51.06
47809;BME280;33573;38.790;-77.084;2023-05-23T10:39:40;102246.99;;;16.57;50.98
47809;BME280;33573;38.790;-77.084;2023-05-23T10:42:02;102254.32;;;16.47;51.31
47809;BME280;33573;38.790;-77.084;2023-05-23T10:44:27;102259.55;;;16.40;51.41
47809;BME280;33573;38.790;-77.084;2023-05-23T10:46:52;102264.07;;;16.80;50.97
47809;BME280;33573;38.790;-77.084;2023-05-23T10:49:13;102266.97;;;16.45;51.70
47809;BME280;33573;38.790;-77.084;2023-05-23T10:51:38;102273.61;;;16.96;50.76
47809;BME280;33573;38.790;-77.084;2023-05-23T10:54:09;102274.76;;;18.03;47.55
47809;BME280;33573;38.790;-77.084;2023-05-23T10:56:31;102274.98;;;19.07;46.05
47809;BME280;33573;38.790;-77.084;2023-05-23T10:58:56;102277.04;;;19.46;44.91
47809;BME280;33573;38.790;-77.084;2023-05-23T11:01:21;102279.83;;;19.50;44.41
47809;BME280;33573;38.790;-77.084;2023-05-23T11:03:51;102282.91;;;20.04;44.21
47809;BME280;33573;38.790;-77.084;2023-05-23T11:06:29;102285.04;;;19.73;44.07
47809;BME280;33573;38.790;-77.084;2023-05-23T11:08:46;102287.29;;;19.93;43.74
47809;BME280;33573;38.790;-77.084;2023-05-23T11:11:03;102289.12;;;20.14;43.37
47809;BME280;33573;38.790;-77.084;2023-05-23T11:15:58;102287.57;;;20.07;43.31
47809;BME280;33573;38.790;-77.084;2023-05-23T11:18:26;102289.31;;;20.18;43.54
47809;BME280;33573;38.790;-77.084;2023-05-23T11:20:51;102292.33;;;20.24;43.68
47809;BME280;33573;38.790;-77.084;2023-05-23T11:23:14;102295.74;;;20.20;43.84
47809;BME280;33573;38.790;-77.084;2023-05-23T11:25:42;102299.35;;;20.06;43.54
47809;BME280;33573;38.790;-77.084;2023-05-23T11:28:06;102302.67;;;20.04;43.76
47809;BME280;33573;38.790;-77.084;2023-05-23T11:30:28;102305.38;;;20.14;43.70
47809;BME280;33573;38.790;-77.084;2023-05-23T11:32:53;102307.63;;;19.88;43.74
47809;BME280;33573;38.790;-77.084;2023-05-23T11:35:22;102312.19;;;20.20;43.64
47809;BME280;33573;38.790;-77.084;2023-05-23T11:37:47;102311.13;;;20.30;43.53
47809;BME280;33573;38.790;-77.084;2023-05-23T11:40:25;102308.70;;;20.49;43.92
47809;BME280;33573;38.790;-77.084;2023-05-23T11:42:32;102306.18;;;20.31;43.53
47809;BME280;33573;38.790;-77.084;2023-05-23T11:44:57;102309.92;;;20.20;43.48
47809;BME280;33573;38.790;-77.084;2023-05-23T11:47:28;102308.46;;;20.17;43.50
47809;BME280;33573;38.790;-77.084;2023-05-23T11:49:49;102307.37;;;20.23;43.46
47809;BME280;33573;38.790;-77.084;2023-05-23T11:52:14;102305.07;;;20.41;43.60
47809;BME280;33573;38.790;-77.084;2023-05-23T11:54:40;102303.92;;;20.50;43.62
47809;BME280;33573;38.790;-77.084;2023-05-23T11:57:05;102305.95;;;20.12;43.76
47809;BME280;33573;38.790;-77.084;2023-05-23T11:59:31;102309.03;;;20.09;43.86
47809;BME280;33573;38.790;-77.084;2023-05-23T12:01:56;102307.87;;;20.43;43.56
47809;BME280;33573;38.790;-77.084;2023-05-23T12:04:23;102307.03;;;20.39;43.38
47809;BME280;33573;38.790;-77.084;2023-05-23T12:06:47;102306.44;;;20.56;43.31
47809;BME280;33573;38.790;-77.084;2023-05-23T12:09:13;102305.56;;;20.66;43.18
47809;BME280;33573;38.790;-77.084;2023-05-23T12:11:40;102304.61;;;20.67;43.18
47809;BME280;33573;38.790;-77.084;2023-05-23T12:14:04;102300.21;;;20.62;43.15
47809;BME280;33573;38.790;-77.084;2023-05-23T12:16:29;102304.48;;;20.75;43.16
47809;BME280;33573;38.790;-77.084;2023-05-23T12:18:54;102308.30;;;20.55;43.63
47809;BME280;33573;38.790;-77.084;2023-05-23T12:21:20;102307.59;;;20.71;43.28
47809;BME280;33573;38.790;-77.084;2023-05-23T12:23:45;102306.48;;;20.81;43.18
47809;BME280;33573;38.790;-77.084;2023-05-23T12:26:11;102309.93;;;21.03;42.40